Time;durP1;ratioP1;P1;durP2;ratioP2;P2;SDS_P1;SDS_P2;PMS_P1;PMS_P2;Temp;Humidity;BMP_temperature;BMP_pressure;BME280_temperature;BME280_humidity;BME280_pressure;Samples;Min_cycle;Max_cycle;Signal;HPM_P1;HPM_P2
2023/02/20 00:01:56;;;;;;;17.80;10.15;;;;;;;4.42;100.00;101989.97;4999593;28;20508;-79
2023/02/20 00:04:22;;;;;;;18.90;11.32;;;;;;;4.43;100.00;101981.28;4999601;28;20082;-79
2023/02/20 00:06:49;;;;;;;18.83;10.70;;;;;;;4.42;100.00;101979.63;4998301;28;20084;-80
2023/02/20 00:09:17;;;;;;;17.77;10.45;;;;;;;4.43;100.00;101982.13;5001170;28;20086;-80
2023/02/20 00:11:45;;;;;;;21.20;11.15;;;;;;;4.40;100.00;101982.28;5003781;28;20434;-79
2023/02/20 00:14:12;;;;;;;20.92;11.10;;;;;;;4.34;100.00;101983.44;5004586;28;20050;-79
2023/02/20 00:16:42;;;;;;;19.63;11.80;;;;;;;4.26;100.00;101970.06;5003845;28;20531;-76
2023/02/20 00:19:10;;;;;;;17.88;11.48;;;;;;;4.22;100.00;101973.78;5003297;28;20097;-79
2023/02/20 00:21:37;;;;;;;22.15;12.05;;;;;;;4.22;100.00;101976.38;5003246;28;20497;-78
2023/02/20 00:24:04;;;;;;;24.25;12.85;;;;;;;4.15;100.00;101971.59;5002925;28;20134;-77
2023/02/20 00:26:32;;;;;;;22.05;11.52;;;;;;;4.16;100.00;101968.91;5002749;28;20348;-79
2023/02/20 00:28:59;;;;;;;20.55;11.88;;;;;;;4.10;100.00;101964.06;5002618;28;20535;-79
2023/02/20 00:31:25;;;;;;;21.45;12.27;;;;;;;4.10;100.00;101964.06;5003681;28;20058;-77
2023/02/20 00:33:52;;;;;;;27.38;13.18;;;;;;;4.14;100.00;101959.56;5006787;28;20077;-78
2023/02/20 00:36:20;;;;;;;23.92;12.63;;;;;;;4.16;100.00;101955.97;5004380;28;20051;-78
2023/02/20 00:38:47;;;;;;;23.85;13.02;;;;;;;4.11;100.00;101967.50;5003131;28;20086;-78
2023/02/20 00:41:16;;;;;;;21.63;12.15;;;;;;;4.06;100.00;101961.72;5004099;28;20062;-78
2023/02/20 00:43:44;;;;;;;24.15;12.88;;;;;;;4.06;100.00;101957.38;5004233;28;20050;-78
2023/02/20 00:46:12;;;;;;;21.90;12.40;;;;;;;4.02;100.00;101958.44;5002225;28;20042;-79
2023/02/20 00:48:39;;;;;;;21.13;12.80;;;;;;;4.08;100.00;101954.69;5002175;28;20054;-77
2023/02/20 00:51:06;;;;;;;32.03;12.88;;;;;;;3.94;100.00;101951.06;5003672;28;20362;-78
2023/02/20 00:53:32;;;;;;;22.88;13.02;;;;;;;3.96;100.00;101951.84;5004310;28;20092;-78
2023/02/20 00:55:59;;;;;;;25.65;12.68;;;;;;;3.99;100.00;101958.59;5002616;28;20085;-77
2023/02/20 00:58:26;;;;;;;22.92;13.30;;;;;;;3.94;100.00;101942.47;5000903;28;20121;-80
2023/02/20 01:00:54;;;;;;;24.75;13.50;;;;;;;3.90;100.00;101933.19;5002151;28;20122;-78
2023/02/20 01:03:20;;;;;;;24.45;12.85;;;;;;;3.81;100.00;101944.03;5001677;28;20185;-78
2023/02/20 01:05:47;;;;;;;27.58;14.73;;;;;;;3.83;100.00;101949.97;5000838;28;20046;-79
2023/02/20 01:08:14;;;;;;;25.98;13.63;;;;;;;3.82;100.00;101940.53;5000876;28;20465;-78
2023/02/20 01:10:40;;;;;;;26.92;13.88;;;;;;;3.80;100.00;101940.59;5001229;28;20125;-79
2023/02/20 01:13:07;;;;;;;24.48;13.38;;;;;;;3.78;100.00;101923.50;5005770;28;20540;-78
2023/02/20 01:15:33;;;;;;;26.63;13.43;;;;;;;3.79;100.00;101927.75;5008397;28;20050;-77
2023/02/20 01:18:01;;;;;;;24.13;13.80;;;;;;;3.83;100.00;101929.25;5009853;28;20077;-77
2023/02/20 01:20:28;;;;;;;24.10;13.35;;;;;;;3.90;100.00;101920.25;5008570;28;20082;-77
2023/02/20 01:22:56;;;;;;;26.23;13.48;;;;;;;3.96;100.00;101910.41;5011314;28;20128;-78
2023/02/20 01:25:23;;;;;;;21.73;12.88;;;;;;;4.06;100.00;101918.50;5010563;28;20057;-78
2023/02/20 01:27:49;;;;;;;29.08;13.98;;;;;;;4.07;100.00;101917.59;4995316;28;20070;-78
2023/02/20 01:30:16;;;;;;;24.98;13.80;;;;;;;4.12;100.00;101915.59;4992028;28;20058;-77
2023/02/20 01:32:44;;;;;;;28.33;13.80;;;;;;;4.11;100.00;101905.31;4996880;28;20050;-79
2023/02/20 01:35:14;;;;;;;23.15;13.23;;;;;;;4.08;100.00;101902.88;4979555;28;20046;-79
2023/02/20 01:37:41;;;;;;;26.02;13.88;;;;;;;4.04;100.00;101910.00;4990302;28;20142;-78
2023/02/20 01:40:14;;;;;;;31.45;13.98;;;;;;;4.03;100.00;101905.72;4991951;28;20433;-77
2023/02/20 01:42:41;;;;;;;24.50;13.90;;;;;;;3.96;100.00;101894.03;4994670;28;20051;-80
2023/02/20 01:45:31;;;;;;;24.33;14.60;;;;;;;3.93;100.00;101896.78;4993385;28;20039;-78
2023/02/20 01:48:02;;;;;;;27.05;13.52;;;;;;;3.96;100.00;101886.25;4992047;28;20055;-79
2023/02/20 01:50:32;;;;;;;25.25;13.95;;;;;;;3.87;100.00;101873.78;4992291;28;20058;-78
2023/02/20 01:53:03;;;;;;;22.38;12.80;;;;;;;3.89;100.00;101872.78;4993715;28;20090;-79
2023/02/20 01:55:37;;;;;;;23.65;14.25;;;;;;;3.96;100.00;101873.31;4997386;28;20066;-78
2023/02/20 01:58:09;;;;;;;26.85;14.95;;;;;;;3.96;100.00;101870.72;4989319;28;20118;-79
2023/02/20 02:00:36;;;;;;;24.55;14.40;;;;;;;4.03;100.00;101861.69;4989865;28;20125;-80
2023/02/20 02:03:07;;;;;;;24.98;13.60;;;;;;;4.07;100.00;101881.34;4987178;28;20138;-79
2023/02/20 02:05:39;;;;;;;27.77;13.88;;;;;;;4.04;100.00;101888.44;4983892;28;20050;-79
2023/02/20 02:08:08;;;;;;;28.85;14.07;;;;;;;4.11;100.00;101874.22;4981126;28;20129;-79
2023/02/20 02:10:38;;;;;;;23.85;14.65;;;;;;;4.12;100.00;101881.09;4981114;28;20111;-79
2023/02/20 02:13:06;;;;;;;25.92;14.23;;;;;;;4.15;100.00;101871.38;4981462;28;20125;-78
2023/02/20 02:15:33;;;;;;;24.73;14.13;;;;;;;4.27;100.00;101867.25;4985615;28;20049;-79
2023/02/20 02:18:21;;;;;;;30.65;14.63;;;;;;;4.32;100.00;101871.28;4985505;28;20134;-79
2023/02/20 02:21:34;;;;;;;26.58;13.55;;;;;;;4.29;100.00;101861.06;4983561;28;20502;-78
2023/02/20 02:24:36;;;;;;;25.27;13.55;;;;;;;4.34;100.00;101866.84;4984458;28;20061;-79
2023/02/20 02:27:31;;;;;;;22.88;13.25;;;;;;;4.30;100.00;101848.97;4993852;28;20043;-78
2023/02/20 02:30:23;;;;;;;23.23;13.90;;;;;;;4.23;100.00;101851.09;4949215;28;20110;-79
2023/02/20 02:33:24;;;;;;;23.52;13.82;;;;;;;4.18;100.00;101844.47;4996715;28;20114;-79
2023/02/20 02:36:30;;;;;;;25.25;13.18;;;;;;;4.22;100.00;101845.97;5002037;28;20052;-79
2023/02/20 02:39:04;;;;;;;28.35;13.13;;;;;;;4.33;100.00;101847.03;5000207;28;20053;-79
2023/02/20 02:41:42;;;;;;;30.48;14.80;;;;;;;4.26;100.00;101840.53;4992246;28;20129;-78
2023/02/20 02:44:15;;;;;;;28.42;14.02;;;;;;;4.37;100.00;101832.16;5001366;28;20081;-78
2023/02/20 02:46:47;;;;;;;26.88;14.63;;;;;;;4.43;100.00;101836.16;5001247;28;20073;-78
2023/02/20 02:49:21;;;;;;;26.92;13.77;;;;;;;4.44;100.00;101827.44;4999914;28;20390;-80
2023/02/20 02:51:50;;;;;;;23.58;13.25;;;;;;;4.41;100.00;101825.03;5000597;28;20128;-79
2023/02/20 02:54:26;;;;;;;28.55;13.30;;;;;;;4.27;100.00;101811.09;4999942;28;20073;-79
2023/02/20 02:56:54;;;;;;;23.75;13.90;;;;;;;4.21;100.00;101814.06;4998384;28;20519;-78
2023/02/20 02:59:28;;;;;;;29.10;13.85;;;;;;;4.11;100.00;101820.66;5000468;28;20623;-78
2023/02/20 03:02:00;;;;;;;27.33;12.20;;;;;;;4.05;100.00;101817.59;5002492;28;20100;-77
2023/02/20 03:04:29;;;;;;;18.48;12.00;;;;;;;3.99;100.00;101810.97;5001888;28;20106;-78
2023/02/20 03:07:00;;;;;;;22.35;12.55;;;;;;;3.99;100.00;101800.63;5003222;28;20075;-77
2023/02/20 03:09:32;;;;;;;21.35;11.63;;;;;;;3.89;100.00;101805.47;5002686;28;20090;-78
2023/02/20 03:12:02;;;;;;;19.55;11.88;;;;;;;3.84;100.00;101793.69;4999362;28;20473;-77
2023/02/20 03:17:27;;;;;;;19.40;12.13;;;;;;;3.70;100.00;101798.81;4999638;28;21322;-77
2023/02/20 03:19:57;;;;;;;22.60;11.73;;;;;;;3.67;100.00;101800.66;5000873;28;20050;-77
2023/02/20 03:22:27;;;;;;;21.73;11.75;;;;;;;3.64;100.00;101793.03;4998496;28;20583;-77
2023/02/20 03:24:59;;;;;;;25.20;11.85;;;;;;;3.72;100.00;101807.34;4998510;28;20520;-78
2023/02/20 03:27:37;;;;;;;22.60;11.30;;;;;;;3.64;100.00;101794.81;4997365;28;20460;-78
2023/02/20 03:30:07;;;;;;;18.85;12.25;;;;;;;3.50;100.00;101792.94;4999101;28;20054;-76
2023/02/20 03:43:45;;;;;;;22.73;11.20;;;;;;;3.65;100.00;101786.94;4997520;28;20053;-78
2023/02/20 03:46:22;;;;;;;20.70;10.63;;;;;;;3.70;100.00;101778.09;5000653;28;20050;-77
2023/02/20 03:48:53;;;;;;;18.55;10.10;;;;;;;3.76;100.00;101781.19;4998237;28;20057;-77
2023/02/20 03:54:05;;;;;;;18.33;9.80;;;;;;;3.77;100.00;101774.25;4997633;28;20109;-77
2023/02/20 03:56:39;;;;;;;25.20;12.50;;;;;;;3.65;100.00;101776.59;4997753;28;20082;-79
2023/02/20 03:59:12;;;;;;;17.55;10.40;;;;;;;3.70;100.00;101778.09;4997569;28;20050;-79
2023/02/20 04:01:40;;;;;;;22.63;10.90;;;;;;;3.55;100.00;101769.41;4997634;28;20199;-79
2023/02/20 04:04:12;;;;;;;20.23;11.15;;;;;;;3.56;100.00;101777.09;4998619;28;20082;-78
2023/02/20 04:06:40;;;;;;;16.33;9.90;;;;;;;3.61;100.00;101782.03;4997042;28;20078;-78
2023/02/20 04:09:12;;;;;;;21.55;10.82;;;;;;;3.47;100.00;101777.59;4998025;28;20199;-79
2023/02/20 04:11:43;;;;;;;20.60;9.77;;;;;;;3.41;100.00;101777.06;4996847;28;20145;-79
2023/02/20 04:14:11;;;;;;;19.00;10.15;;;;;;;3.46;100.00;101770.75;4998308;28;20127;-78
2023/02/20 04:16:45;;;;;;;18.23;10.02;;;;;;;3.47;100.00;101766.41;4998337;28;20073;-79
2023/02/20 04:19:12;;;;;;;18.88;9.88;;;;;;;3.40;100.00;101780.56;4998966;28;20134;-79
2023/02/20 04:21:42;;;;;;;20.45;9.75;;;;;;;3.41;100.00;101771.91;4999636;28;20085;-79
2023/02/20 04:24:13;;;;;;;20.17;10.23;;;;;;;3.38;100.00;101772.06;5001391;28;20088;-80
2023/02/20 04:26:41;;;;;;;17.13;10.32;;;;;;;3.29;100.00;101766.50;5001428;28;20108;-80
2023/02/20 04:29:08;;;;;;;17.42;10.23;;;;;;;3.27;100.00;101770.91;5001258;28;20046;-80
2023/02/20 04:31:34;;;;;;;20.23;9.15;;;;;;;3.33;100.00;101769.72;5000765;28;20134;-80
2023/02/20 04:34:01;;;;;;;15.52;9.60;;;;;;;3.33;100.00;101760.19;4998683;28;20133;-80
2023/02/20 04:36:28;;;;;;;20.90;9.90;;;;;;;3.41;100.00;101766.72;5000537;28;20082;-79
2023/02/20 04:38:54;;;;;;;22.50;10.48;;;;;;;3.34;100.00;101771.38;4999026;28;20086;-80
2023/02/20 04:41:21;;;;;;;14.65;9.20;;;;;;;3.31;100.00;101764.63;4999363;28;20484;-81
2023/02/20 04:44:29;;;;;;;19.85;10.38;;;;;;;3.22;100.00;101767.72;4997504;28;20057;-80
2023/02/20 04:46:36;;;;;;;17.17;10.32;;;;;;;3.25;100.00;101767.56;4997397;28;20319;-81
2023/02/20 04:49:02;;;;;;;19.77;9.32;;;;;;;3.27;100.00;101764.91;4998058;28;20583;-80
2023/02/20 04:51:29;;;;;;;17.75;9.95;;;;;;;3.20;100.00;101773.91;4997705;28;20081;-78
2023/02/20 04:53:56;;;;;;;15.02;9.82;;;;;;;3.13;100.00;101768.22;4998435;28;20110;-81
2023/02/20 04:56:22;;;;;;;22.33;11.05;;;;;;;3.04;100.00;101770.44;5001513;28;20141;-80
2023/02/20 04:58:50;;;;;;;20.95;10.98;;;;;;;3.02;100.00;101775.69;5000375;28;20121;-79
2023/02/20 05:01:17;;;;;;;20.17;11.23;;;;;;;2.93;100.00;101766.66;4999820;28;20073;-78
2023/02/20 05:03:44;;;;;;;25.17;12.98;;;;;;;2.89;100.00;101764.28;4999753;28;20457;-78
2023/02/20 05:06:10;;;;;;;24.30;12.55;;;;;;;2.91;100.00;101768.47;4999636;28;20062;-79
2023/02/20 05:08:37;;;;;;;19.08;12.45;;;;;;;2.86;100.00;101773.03;5000258;28;20046;-79
2023/02/20 05:11:04;;;;;;;20.90;12.52;;;;;;;2.80;100.00;101775.97;4999427;28;20130;-79
2023/02/20 05:13:31;;;;;;;25.58;12.18;;;;;;;2.81;100.00;101766.47;4999211;28;20128;-79
2023/02/20 05:15:59;;;;;;;27.65;12.60;;;;;;;2.82;100.00;101768.13;4999872;28;20081;-79
2023/02/20 05:18:26;;;;;;;22.05;11.35;;;;;;;2.81;100.00;101762.13;4991760;28;20085;-78
2023/02/20 05:23:36;;;;;;;24.02;11.77;;;;;;;2.82;100.00;101757.78;4993195;28;20053;-79
2023/02/20 05:26:03;;;;;;;22.58;11.95;;;;;;;2.82;100.00;101757.78;4999549;28;20082;-78
2023/02/20 05:28:30;;;;;;;26.27;12.43;;;;;;;2.85;100.00;101753.28;4998970;28;20082;-78
2023/02/20 05:30:56;;;;;;;24.85;11.75;;;;;;;2.81;100.00;101759.53;5000122;28;20046;-79
2023/02/20 05:33:24;;;;;;;23.75;12.15;;;;;;;2.73;100.00;101758.25;5000613;28;20133;-79
2023/02/20 05:35:51;;;;;;;22.27;12.60;;;;;;;2.73;100.00;101758.25;5001841;28;20051;-79
2023/02/20 05:38:17;;;;;;;20.05;12.10;;;;;;;2.71;100.00;101755.75;5001264;28;20106;-78
2023/02/20 05:40:44;;;;;;;21.17;12.48;;;;;;;2.73;100.00;101743.59;5001738;28;20070;-79
2023/02/20 05:43:10;;;;;;;21.25;12.75;;;;;;;2.68;100.00;101750.75;5002214;28;20091;-79
2023/02/20 05:45:37;;;;;;;21.13;11.98;;;;;;;2.68;100.00;101745.56;5001980;28;20122;-79
2023/02/20 05:48:04;;;;;;;24.75;12.00;;;;;;;2.65;100.00;101748.31;5001716;28;20077;-79
2023/02/20 05:50:32;;;;;;;18.90;11.00;;;;;;;2.75;100.00;101741.75;5000240;28;20052;-79
2023/02/20 05:52:59;;;;;;;21.55;12.23;;;;;;;2.74;100.00;101747.00;5000225;28;20483;-79
2023/02/20 05:55:25;;;;;;;19.52;11.43;;;;;;;2.79;100.00;101751.03;4993340;28;20081;-80
2023/02/20 05:57:52;;;;;;;20.13;11.02;;;;;;;2.80;100.00;101734.63;5001097;28;20428;-80
2023/02/20 06:00:19;;;;;;;20.85;11.65;;;;;;;2.78;100.00;101740.78;5002273;28;20133;-80
2023/02/20 06:02:46;;;;;;;23.48;11.52;;;;;;;2.75;100.00;101741.75;5002475;28;20093;-80
2023/02/20 06:05:12;;;;;;;24.58;11.80;;;;;;;2.81;100.00;101745.78;5000074;28;20126;-80
2023/02/20 06:07:43;;;;;;;20.33;11.02;;;;;;;2.76;100.00;101746.00;5002050;28;20101;-79
2023/02/20 06:10:09;;;;;;;21.67;12.32;;;;;;;2.72;100.00;101741.91;4999224;28;20111;-79
2023/02/20 06:12:36;;;;;;;17.77;11.18;;;;;;;2.60;100.00;101739.94;4999860;28;20101;-79
2023/02/20 06:15:03;;;;;;;16.95;10.77;;;;;;;2.60;100.00;101743.38;5000004;28;20224;-80
2023/02/20 06:17:31;;;;;;;22.05;11.75;;;;;;;2.51;100.00;101748.16;4998753;28;20482;-80
2023/02/20 06:19:58;;;;;;;20.02;11.60;;;;;;;2.49;100.00;101742.22;5000599;28;20450;-80
2023/02/20 06:22:25;;;;;;;20.60;11.80;;;;;;;2.39;100.00;101743.59;4992110;28;20130;-80
2023/02/20 06:24:53;;;;;;;24.88;11.90;;;;;;;2.36;100.00;101744.63;5000069;28;20055;-80
2023/02/20 06:27:20;;;;;;;22.17;11.82;;;;;;;2.30;100.00;101747.50;4999315;28;20085;-80
2023/02/20 06:29:47;;;;;;;21.15;11.82;;;;;;;2.32;100.00;101749.09;4999588;28;20508;-79
2023/02/20 06:32:14;;;;;;;21.83;11.02;;;;;;;2.37;100.00;101745.44;4998909;28;20068;-80
2023/02/20 06:34:40;;;;;;;22.20;11.52;;;;;;;2.33;100.00;101730.09;4999907;28;20081;-79
2023/02/20 06:37:07;;;;;;;26.25;12.18;;;;;;;2.30;100.00;101732.84;4999552;28;20082;-79
2023/02/20 06:39:34;;;;;;;21.50;11.82;;;;;;;2.28;100.00;101731.25;5001540;28;20137;-80
2023/02/20 06:42:02;;;;;;;21.55;11.95;;;;;;;2.34;100.00;101736.09;5003587;28;20046;-81
2023/02/20 06:44:29;;;;;;;23.55;11.25;;;;;;;2.33;100.00;101731.84;5002804;28;20141;-79
2023/02/20 06:46:56;;;;;;;21.70;11.70;;;;;;;2.31;100.00;101723.34;5000340;28;20057;-80
2023/02/20 06:49:22;;;;;;;20.95;11.18;;;;;;;2.33;100.00;101740.44;4999461;28;20058;-80
2023/02/20 06:51:52;;;;;;;19.63;11.73;;;;;;;2.34;100.00;101746.44;4997724;28;20146;-80
2023/02/20 06:54:21;;;;;;;18.35;10.60;;;;;;;2.43;100.00;101739.94;4998610;28;20501;-79
2023/02/20 06:56:48;;;;;;;17.65;10.68;;;;;;;2.55;100.00;101747.09;4998778;28;20054;-79
2023/02/20 06:59:16;;;;;;;17.75;9.88;;;;;;;2.57;100.00;101756.44;4999082;28;20126;-80
2023/02/20 07:01:43;;;;;;;18.23;10.18;;;;;;;2.73;100.00;101764.25;4999137;28;20137;-80
2023/02/20 07:04:15;;;;;;;19.50;10.20;;;;;;;3.02;100.00;101775.69;4998977;28;20532;-80
2023/02/20 07:06:42;;;;;;;20.48;10.80;;;;;;;3.06;100.00;101784.13;4999010;28;20058;-76
2023/02/20 07:09:09;;;;;;;18.45;9.43;;;;;;;3.10;100.00;101789.06;4998878;28;20119;-78
2023/02/20 07:11:36;;;;;;;18.13;7.95;;;;;;;3.30;100.00;101780.25;4999288;28;20146;-79
2023/02/20 07:14:02;;;;;;;18.35;9.68;;;;;;;3.80;100.00;101774.06;4998854;28;20133;-79
2023/02/20 07:16:31;;;;;;;21.25;10.77;;;;;;;4.09;100.00;101777.63;4998912;28;20086;-79
2023/02/20 07:18:57;;;;;;;21.98;11.40;;;;;;;4.27;100.00;101785.19;4998576;28;20053;-79
2023/02/20 07:21:24;;;;;;;24.08;11.25;;;;;;;4.37;100.00;101784.66;4998998;28;20065;-78
2023/02/20 07:23:52;;;;;;;16.50;9.38;;;;;;;4.45;100.00;101780.72;4998795;28;20133;-78
2023/02/20 07:26:20;;;;;;;18.45;8.60;;;;;;;4.50;100.00;101783.03;4998307;28;20132;-78
2023/02/20 07:28:47;;;;;;;12.35;7.90;;;;;;;4.52;100.00;101779.44;4999485;28;20085;-79
2023/02/20 07:31:13;;;;;;;11.13;7.18;;;;;;;4.48;100.00;101783.13;4999408;28;20128;-79
2023/02/20 07:33:42;;;;;;;18.98;7.88;;;;;;;4.46;100.00;101781.56;4999316;28;20141;-79
2023/02/20 07:36:09;;;;;;;16.77;8.05;;;;;;;4.47;100.00;101785.81;4999675;28;20058;-79
2023/02/20 07:38:36;;;;;;;23.23;9.85;;;;;;;4.50;100.00;101791.66;4998811;28;20089;-78
2023/02/20 07:41:03;;;;;;;19.38;12.05;;;;;;;4.60;100.00;101792.78;4999491;28;20105;-78
2023/02/20 07:43:29;;;;;;;19.35;12.27;;;;;;;4.74;100.00;101794.56;5000310;28;20054;-78
2023/02/20 07:45:56;;;;;;;24.42;14.05;;;;;;;4.93;100.00;101792.56;5000016;28;20087;-79
2023/02/20 07:48:23;;;;;;;20.33;12.88;;;;;;;5.13;100.00;101790.53;5000615;28;20513;-79
2023/02/20 07:50:52;;;;;;;23.25;11.02;;;;;;;5.58;100.00;101798.09;5001080;28;20090;-79
2023/02/20 07:53:21;;;;;;;14.13;10.05;;;;;;;5.87;100.00;101792.81;5001598;28;20050;-78
2023/02/20 07:55:48;;;;;;;21.60;10.63;;;;;;;6.04;100.00;101800.41;5001617;28;20061;-78
2023/02/20 07:58:14;;;;;;;18.67;10.02;;;;;;;6.19;100.00;101798.56;5002990;28;20065;-79
2023/02/20 08:00:41;;;;;;;15.40;9.75;;;;;;;6.46;100.00;101801.16;5004346;28;20050;-79
2023/02/20 08:03:08;;;;;;;15.90;9.68;;;;;;;6.72;100.00;101797.66;5003968;28;20052;-78
2023/02/20 08:05:35;;;;;;;17.38;10.10;;;;;;;6.26;100.00;101785.09;5004936;28;20054;-79
2023/02/20 08:08:03;;;;;;;16.02;9.02;;;;;;;6.18;100.00;101787.34;5004069;28;20050;-80
2023/02/20 08:10:29;;;;;;;15.18;9.60;;;;;;;5.89;100.00;101794.44;5005585;28;20050;-78
2023/02/20 08:12:56;;;;;;;15.02;9.82;;;;;;;5.72;100.00;101778.19;5007891;28;20084;-78
2023/02/20 08:15:23;;;;;;;15.00;10.23;;;;;;;5.66;100.00;101795.88;5006322;28;20057;-80
2023/02/20 08:17:50;;;;;;;15.40;10.05;;;;;;;5.80;100.00;101788.94;5004222;28;20081;-79
2023/02/20 08:20:18;;;;;;;19.58;9.90;;;;;;;5.82;100.00;101789.69;5004541;28;20082;-80
2023/02/20 08:22:45;;;;;;;21.20;11.48;;;;;;;5.72;100.00;101786.00;5003569;28;20070;-80
2023/02/20 08:25:15;;;;;;;21.75;11.23;;;;;;;5.74;100.00;101797.13;5003513;28;20050;-80
2023/02/20 08:27:42;;;;;;;17.27;10.93;;;;;;;5.79;100.00;101784.69;5002858;28;20137;-80
2023/02/20 08:30:11;;;;;;;19.50;11.68;;;;;;;5.86;100.00;101797.19;5002110;28;20527;-79
2023/02/20 08:32:38;;;;;;;20.02;11.82;;;;;;;5.83;100.00;101791.34;5007218;28;20082;-80
2023/02/20 08:35:05;;;;;;;28.15;13.38;;;;;;;5.80;100.00;101794.13;5008053;28;20058;-79
2023/02/20 08:37:32;;;;;;;23.48;13.20;;;;;;;5.66;100.00;101795.88;5005622;28;20046;-80
2023/02/20 08:39:59;;;;;;;25.33;13.65;;;;;;;5.74;100.00;101797.13;5004761;28;20085;-79
2023/02/20 08:42:27;;;;;;;18.60;12.98;;;;;;;5.72;100.00;101791.19;4998547;28;20124;-80
2023/02/20 08:44:53;;;;;;;21.77;13.27;;;;;;;5.74;100.00;101802.31;5004436;28;20136;-80
2023/02/20 08:47:22;;;;;;;20.52;13.55;;;;;;;5.73;100.00;101801.47;5002523;28;20086;-79
2023/02/20 08:49:49;;;;;;;22.00;13.82;;;;;;;5.85;100.00;101799.88;5000965;28;20500;-80
2023/02/20 08:52:16;;;;;;;23.83;14.57;;;;;;;5.87;100.00;101790.22;5002296;28;20078;-80
2023/02/20 08:54:45;;;;;;;25.17;14.43;;;;;;;5.93;100.00;101788.09;5002312;28;20054;-79
2023/02/20 08:57:12;;;;;;;23.75;14.32;;;;;;;6.04;100.00;101795.22;5002481;28;20386;-79
2023/02/20 08:59:40;;;;;;;27.33;14.32;;;;;;;6.12;100.00;101794.75;5002235;28;20073;-79
2023/02/20 09:02:07;;;;;;;22.60;13.90;;;;;;;6.08;100.00;101791.50;5001129;28;20081;-77
2023/02/20 09:04:33;;;;;;;27.90;13.98;;;;;;;6.07;99.82;101792.44;5003661;28;20050;-75
2023/02/20 09:07:00;;;;;;;25.60;14.70;;;;;;;6.17;99.66;101800.44;5004615;28;20050;-77
2023/02/20 09:09:28;;;;;;;25.77;14.18;;;;;;;6.11;99.08;101799.09;5003719;28;20073;-78
2023/02/20 09:11:55;;;;;;;23.30;13.93;;;;;;;6.24;99.36;101797.34;5004219;28;20066;-78
2023/02/20 09:14:22;;;;;;;22.55;14.73;;;;;;;6.31;98.77;101803.00;5002101;28;20046;-78
2023/02/20 09:16:53;;;;;;;22.33;14.52;;;;;;;6.30;98.69;101803.91;5001839;28;20062;-78
2023/02/20 09:19:20;;;;;;;28.17;14.65;;;;;;;6.25;98.54;101803.38;5002584;28;20087;-78
2023/02/20 09:21:47;;;;;;;21.90;14.73;;;;;;;6.42;98.46;101810.09;5004867;28;20050;-78
2023/02/20 09:24:15;;;;;;;28.00;15.07;;;;;;;6.39;98.28;101810.28;5000261;28;20054;-78
2023/02/20 09:26:42;;;;;;;22.08;14.23;;;;;;;6.21;98.19;101801.91;5002111;28;20082;-79
2023/02/20 09:29:09;;;;;;;23.25;13.45;;;;;;;6.22;98.35;101808.78;5001983;28;20054;-77
2023/02/20 09:31:35;;;;;;;23.88;14.65;;;;;;;6.24;97.93;101801.72;5000682;28;20080;-78
2023/02/20 09:34:04;;;;;;;21.92;14.70;;;;;;;6.37;97.89;101787.00;5003082;28;20057;-79
2023/02/20 09:36:31;;;;;;;22.33;14.68;;;;;;;6.48;97.67;101788.88;5001537;28;20058;-80
2023/02/20 09:39:31;;;;;;;;;;;;;;;;;;;;;
2023/02/20 09:42:27;;;;;;;20.75;14.50;;;;;;;6.74;96.37;101785.38;5000493;28;20540;-79
2023/02/20 09:48:40;;;;;;;18.33;12.60;;;;;;;7.09;95.69;101779.56;4963351;28;20501;-79
2023/02/20 09:54:13;;;;;;;24.02;12.45;;;;;;;7.15;94.72;101776.50;5002683;28;20078;-79
2023/02/20 09:56:52;;;;;;;21.65;12.88;;;;;;;7.47;94.64;101780.31;5002856;28;20086;-79
2023/02/20 09:59:28;;;;;;;17.77;11.88;;;;;;;7.52;93.82;101799.06;5003302;28;20042;-78
2023/02/20 10:02:01;;;;;;;19.98;12.93;;;;;;;7.36;93.74;101777.63;5000508;28;20110;-80
2023/02/20 10:04:34;;;;;;;18.63;11.80;;;;;;;7.66;93.58;101788.47;5001604;28;20046;-79
2023/02/20 10:07:13;;;;;;;19.50;12.40;;;;;;;7.71;93.02;101793.38;5000228;28;20106;-79
2023/02/20 10:09:42;;;;;;;19.77;12.18;;;;;;;7.60;92.89;101782.88;5004064;28;20118;-77
2023/02/20 10:12:20;;;;;;;19.23;12.60;;;;;;;7.71;92.53;101790.75;5007365;28;20070;-78
2023/02/20 10:15:00;;;;;;;26.65;12.55;;;;;;;7.71;92.36;101787.31;5008138;28;20074;-78
2023/02/20 10:17:37;;;;;;;20.60;12.20;;;;;;;7.85;92.53;101780.19;5007133;28;20085;-80
2023/02/20 10:20:13;;;;;;;19.65;12.27;;;;;;;8.06;91.95;101787.38;5004360;28;20110;-79
2023/02/20 10:22:53;;;;;;;18.10;11.68;;;;;;;8.09;91.58;101774.97;5010949;28;20057;-76
2023/02/20 10:25:28;;;;;;;20.88;11.45;;;;;;;8.07;91.44;101776.84;5008746;28;20568;-79
2023/02/20 10:28:02;;;;;;;20.25;12.02;;;;;;;8.07;91.18;101778.63;5007857;28;20050;-75
2023/02/20 10:30:33;;;;;;;16.70;12.10;;;;;;;7.91;91.29;101782.34;5007218;28;20070;-76
2023/02/20 10:33:11;;;;;;;22.20;11.98;;;;;;;7.84;91.17;101775.09;5008253;28;20047;-79
2023/02/20 10:35:43;;;;;;;18.13;12.05;;;;;;;7.87;91.23;101773.09;5006840;28;20101;-77
2023/02/20 10:38:19;;;;;;;19.67;12.52;;;;;;;7.98;91.37;101767.13;5009699;28;20050;-78
2023/02/20 10:40:49;;;;;;;17.65;11.13;;;;;;;7.92;91.18;101762.34;5006466;28;20043;-78
2023/02/20 10:43:20;;;;;;;21.08;12.82;;;;;;;8.00;91.64;101760.03;5007615;28;20069;-78
2023/02/20 10:45:55;;;;;;;25.83;17.25;;;;;;;8.18;91.44;101763.88;5004972;28;20189;-78
2023/02/20 10:48:29;;;;;;;18.42;12.98;;;;;;;8.28;91.33;101775.28;5002942;28;20421;-79
2023/02/20 10:51:06;;;;;;;21.38;12.90;;;;;;;8.46;91.05;101769.69;5003589;28;20073;-77
2023/02/20 10:53:40;;;;;;;21.92;12.05;;;;;;;8.31;90.30;101772.44;5003793;28;20046;-79
2023/02/20 10:56:12;;;;;;;19.45;12.32;;;;;;;8.32;90.32;101783.72;5003058;28;20061;-78
2023/02/20 10:58:43;;;;;;;18.65;12.75;;;;;;;8.53;90.50;101778.69;5005580;28;20054;-78
2023/02/20 11:01:13;;;;;;;18.80;13.05;;;;;;;8.53;90.47;101770.88;5005210;28;20062;-77
2023/02/20 11:03:47;;;;;;;25.10;13.02;;;;;;;8.57;90.26;101774.91;5004950;28;20453;-77
2023/02/20 11:06:16;;;;;;;17.63;11.85;;;;;;;8.58;89.50;101755.69;4999786;28;20084;-78
2023/02/20 11:08:45;;;;;;;19.75;13.23;;;;;;;8.77;89.21;101761.19;5004477;28;20050;-77
2023/02/20 11:11:25;;;;;;;22.63;12.98;;;;;;;8.70;89.25;101746.94;5006997;28;20082;-79
2023/02/20 11:13:52;;;;;;;22.10;13.20;;;;;;;8.73;89.55;101751.94;4999795;28;20065;-79
2023/02/20 11:16:27;;;;;;;19.55;12.70;;;;;;;8.64;89.48;101743.03;5000677;28;20125;-78
2023/02/20 11:19:02;;;;;;;20.73;13.55;;;;;;;8.64;89.39;101744.81;5000553;28;20077;-79
2023/02/20 11:21:38;;;;;;;22.60;12.77;;;;;;;8.78;89.46;101746.38;5003313;28;20056;-79
2023/02/20 11:24:32;;;;;;;20.45;13.15;;;;;;;9.07;88.99;101744.13;5002218;28;20058;-78
2023/02/20 11:27:06;;;;;;;20.63;13.40;;;;;;;9.33;88.73;101737.69;5001153;28;20054;-80
2023/02/20 11:29:41;;;;;;;20.00;13.70;;;;;;;9.43;88.35;101727.34;5002936;28;20100;-77
2023/02/20 11:32:30;;;;;;;22.27;14.82;;;;;;;9.38;88.36;101719.06;5005001;28;20069;-79
2023/02/20 11:35:25;;;;;;;22.77;13.43;;;;;;;9.60;87.07;101722.44;5000521;28;20084;-77
2023/02/20 11:38:27;;;;;;;20.70;13.68;;;;;;;9.63;87.07;101716.97;5000568;28;20054;-80
2023/02/20 11:41:32;;;;;;;20.25;13.52;;;;;;;9.98;86.41;101694.94;5003285;28;20429;-78
2023/02/20 11:44:16;;;;;;;23.85;13.95;;;;;;;9.79;85.79;101682.56;4972311;28;20050;-79
2023/02/20 11:46:43;;;;;;;22.10;14.70;;;;;;;9.59;86.10;101678.97;5002624;28;20130;-76
2023/02/20 11:49:14;;;;;;;23.92;14.32;;;;;;;9.71;86.12;101655.41;5000680;28;20551;-77
2023/02/20 11:51:42;;;;;;;21.55;13.27;;;;;;;9.49;85.67;101671.97;5005760;28;20050;-79
2023/02/20 11:54:15;;;;;;;25.23;13.98;;;;;;;9.53;86.03;101666.38;5007999;28;20077;-78
2023/02/20 11:57:00;;;;;;;21.63;14.10;;;;;;;9.46;86.51;101677.44;5007619;28;20046;-78